sensor_id;sensor_type;location;lat;lon;timestamp;P1;durP1;ratioP1;P2;durP2;ratioP2
32505;SDS011;18955;51.224;8.482;2023-08-06T00:00:26;5.35;;;2.88;;
32505;SDS011;18955;51.224;8.482;2023-08-06T00:02:53;6.50;;;2.17;;
32505;SDS011;18955;51.224;8.482;2023-08-06T00:05:19;2.50;;;2.28;;
32505;SDS011;18955;51.224;8.482;2023-08-06T00:07:48;7.55;;;2.22;;
32505;SDS011;18955;51.224;8.482;2023-08-06T00:10:15;2.78;;;1.90;;
32505;SDS011;18955;51.224;8.482;2023-08-06T00:12:42;2.05;;;1.85;;
32505;SDS011;18955;51.224;8.482;2023-08-06T00:15:09;7.57;;;2.53;;
32505;SDS011;18955;51.224;8.482;2023-08-06T00:20:02;2.58;;;2.05;;
32505;SDS011;18955;51.224;8.482;2023-08-06T00:22:32;3.65;;;2.00;;
32505;SDS011;18955;51.224;8.482;2023-08-06T00:24:59;3.85;;;2.35;;
32505;SDS011;18955;51.224;8.482;2023-08-06T00:27:25;3.38;;;2.45;;
32505;SDS011;18955;51.224;8.482;2023-08-06T00:29:52;4.40;;;2.83;;
32505;SDS011;18955;51.224;8.482;2023-08-06T00:32:18;4.25;;;2.50;;
32505;SDS011;18955;51.224;8.482;2023-08-06T00:34:44;4.82;;;2.83;;
32505;SDS011;18955;51.224;8.482;2023-08-06T00:37:11;2.03;;;1.70;;
32505;SDS011;18955;51.224;8.482;2023-08-06T00:39:38;7.15;;;2.70;;
32505;SDS011;18955;51.224;8.482;2023-08-06T00:42:05;5.93;;;2.60;;
32505;SDS011;18955;51.224;8.482;2023-08-06T00:44:32;2.63;;;2.40;;
32505;SDS011;18955;51.224;8.482;2023-08-06T00:46:58;2.85;;;2.30;;
32505;SDS011;18955;51.224;8.482;2023-08-06T00:49:25;11.10;;;3.13;;
32505;SDS011;18955;51.224;8.482;2023-08-06T00:51:51;3.15;;;2.47;;
32505;SDS011;18955;51.224;8.482;2023-08-06T00:54:17;5.53;;;2.70;;
32505;SDS011;18955;51.224;8.482;2023-08-06T00:56:44;6.25;;;2.60;;
32505;SDS011;18955;51.224;8.482;2023-08-06T00:59:12;3.10;;;2.30;;
32505;SDS011;18955;51.224;8.482;2023-08-06T01:01:38;5.80;;;2.70;;
32505;SDS011;18955;51.224;8.482;2023-08-06T01:04:05;6.15;;;2.75;;
32505;SDS011;18955;51.224;8.482;2023-08-06T01:08:58;5.07;;;2.90;;
32505;SDS011;18955;51.224;8.482;2023-08-06T01:11:48;4.57;;;2.45;;
32505;SDS011;18955;51.224;8.482;2023-08-06T01:14:32;2.90;;;2.58;;
32505;SDS011;18955;51.224;8.482;2023-08-06T01:17:19;8.52;;;2.88;;
32505;SDS011;18955;51.224;8.482;2023-08-06T01:19:46;7.55;;;3.22;;
32505;SDS011;18955;51.224;8.482;2023-08-06T01:22:12;4.40;;;2.75;;
32505;SDS011;18955;51.224;8.482;2023-08-06T01:24:38;3.55;;;2.42;;
32505;SDS011;18955;51.224;8.482;2023-08-06T01:27:11;9.30;;;2.90;;
32505;SDS011;18955;51.224;8.482;2023-08-06T01:29:52;4.68;;;3.13;;
32505;SDS011;18955;51.224;8.482;2023-08-06T01:32:30;3.92;;;3.05;;
32505;SDS011;18955;51.224;8.482;2023-08-06T01:34:59;5.57;;;3.58;;
32505;SDS011;18955;51.224;8.482;2023-08-06T01:37:28;4.55;;;3.65;;
32505;SDS011;18955;51.224;8.482;2023-08-06T01:39:55;4.82;;;3.33;;
32505;SDS011;18955;51.224;8.482;2023-08-06T01:42:22;5.97;;;2.25;;
32505;SDS011;18955;51.224;8.482;2023-08-06T01:44:48;5.30;;;3.78;;
32505;SDS011;18955;51.224;8.482;2023-08-06T01:47:14;5.68;;;3.30;;
32505;SDS011;18955;51.224;8.482;2023-08-06T01:49:40;4.93;;;3.40;;
32505;SDS011;18955;51.224;8.482;2023-08-06T01:52:06;5.35;;;2.63;;
32505;SDS011;18955;51.224;8.482;2023-08-06T01:54:33;4.28;;;3.53;;
32505;SDS011;18955;51.224;8.482;2023-08-06T01:56:59;7.40;;;3.58;;
32505;SDS011;18955;51.224;8.482;2023-08-06T01:59:25;4.07;;;3.15;;
32505;SDS011;18955;51.224;8.482;2023-08-06T02:01:52;5.50;;;2.83;;
32505;SDS011;18955;51.224;8.482;2023-08-06T02:04:18;4.05;;;3.50;;
32505;SDS011;18955;51.224;8.482;2023-08-06T02:06:44;5.32;;;3.85;;
32505;SDS011;18955;51.224;8.482;2023-08-06T02:09:10;5.18;;;3.60;;
32505;SDS011;18955;51.224;8.482;2023-08-06T02:11:37;7.35;;;4.00;;
32505;SDS011;18955;51.224;8.482;2023-08-06T02:14:03;8.25;;;4.07;;
32505;SDS011;18955;51.224;8.482;2023-08-06T02:16:29;9.48;;;4.40;;
32505;SDS011;18955;51.224;8.482;2023-08-06T02:18:55;11.90;;;4.20;;
32505;SDS011;18955;51.224;8.482;2023-08-06T02:21:21;3.67;;;2.80;;
32505;SDS011;18955;51.224;8.482;2023-08-06T02:23:48;9.27;;;4.10;;
32505;SDS011;18955;51.224;8.482;2023-08-06T02:26:14;9.43;;;4.57;;
32505;SDS011;18955;51.224;8.482;2023-08-06T02:28:40;6.97;;;4.50;;
32505;SDS011;18955;51.224;8.482;2023-08-06T02:31:06;6.85;;;4.60;;
32505;SDS011;18955;51.224;8.482;2023-08-06T02:33:35;9.38;;;3.97;;
32505;SDS011;18955;51.224;8.482;2023-08-06T02:36:01;4.47;;;3.58;;
32505;SDS011;18955;51.224;8.482;2023-08-06T02:38:31;5.90;;;4.10;;
32505;SDS011;18955;51.224;8.482;2023-08-06T02:40:58;4.53;;;3.97;;
32505;SDS011;18955;51.224;8.482;2023-08-06T02:43:24;8.60;;;4.35;;
32505;SDS011;18955;51.224;8.482;2023-08-06T02:45:51;4.82;;;3.45;;
32505;SDS011;18955;51.224;8.482;2023-08-06T02:48:17;6.65;;;4.03;;
32505;SDS011;18955;51.224;8.482;2023-08-06T02:53:10;4.07;;;3.45;;
32505;SDS011;18955;51.224;8.482;2023-08-06T02:55:37;20.95;;;3.55;;
32505;SDS011;18955;51.224;8.482;2023-08-06T02:58:11;5.40;;;3.30;;
32505;SDS011;18955;51.224;8.482;2023-08-06T03:00:41;3.78;;;3.00;;
32505;SDS011;18955;51.224;8.482;2023-08-06T03:03:09;3.67;;;3.15;;
32505;SDS011;18955;51.224;8.482;2023-08-06T03:05:51;5.88;;;3.20;;
32505;SDS011;18955;51.224;8.482;2023-08-06T03:08:23;3.80;;;3.40;;
32505;SDS011;18955;51.224;8.482;2023-08-06T03:10:51;4.78;;;3.22;;
32505;SDS011;18955;51.224;8.482;2023-08-06T03:13:19;4.88;;;2.95;;
32505;SDS011;18955;51.224;8.482;2023-08-06T03:15:52;5.82;;;3.15;;
32505;SDS011;18955;51.224;8.482;2023-08-06T03:18:22;9.35;;;3.25;;
32505;SDS011;18955;51.224;8.482;2023-08-06T03:20:50;4.68;;;2.88;;
32505;SDS011;18955;51.224;8.482;2023-08-06T03:23:17;4.63;;;2.50;;
32505;SDS011;18955;51.224;8.482;2023-08-06T03:25:44;4.45;;;2.60;;
32505;SDS011;18955;51.224;8.482;2023-08-06T03:28:12;2.90;;;2.60;;
32505;SDS011;18955;51.224;8.482;2023-08-06T03:30:39;7.05;;;2.60;;
32505;SDS011;18955;51.224;8.482;2023-08-06T03:33:08;4.78;;;2.60;;
32505;SDS011;18955;51.224;8.482;2023-08-06T03:35:34;4.75;;;1.90;;
32505;SDS011;18955;51.224;8.482;2023-08-06T03:38:00;2.28;;;2.08;;
32505;SDS011;18955;51.224;8.482;2023-08-06T03:40:27;3.20;;;1.85;;
32505;SDS011;18955;51.224;8.482;2023-08-06T03:42:55;3.50;;;2.00;;
32505;SDS011;18955;51.224;8.482;2023-08-06T03:45:21;3.17;;;2.58;;
32505;SDS011;18955;51.224;8.482;2023-08-06T03:47:48;2.35;;;2.10;;
32505;SDS011;18955;51.224;8.482;2023-08-06T03:50:15;4.00;;;2.17;;
32505;SDS011;18955;51.224;8.482;2023-08-06T03:52:41;4.07;;;1.80;;
32505;SDS011;18955;51.224;8.482;2023-08-06T03:55:07;2.65;;;2.00;;
32505;SDS011;18955;51.224;8.482;2023-08-06T03:57:33;4.95;;;2.30;;
32505;SDS011;18955;51.224;8.482;2023-08-06T04:00:00;3.50;;;2.80;;
32505;SDS011;18955;51.224;8.482;2023-08-06T04:02:28;3.30;;;2.63;;
32505;SDS011;18955;51.224;8.482;2023-08-06T04:04:55;3.42;;;2.38;;
32505;SDS011;18955;51.224;8.482;2023-08-06T04:07:21;4.38;;;2.60;;
32505;SDS011;18955;51.224;8.482;2023-08-06T04:09:54;5.55;;;2.45;;
32505;SDS011;18955;51.224;8.482;2023-08-06T04:12:25;4.82;;;2.50;;
32505;SDS011;18955;51.224;8.482;2023-08-06T04:14:52;4.22;;;2.67;;
32505;SDS011;18955;51.224;8.482;2023-08-06T04:17:19;5.18;;;2.83;;
32505;SDS011;18955;51.224;8.482;2023-08-06T04:19:47;4.90;;;3.10;;
32505;SDS011;18955;51.224;8.482;2023-08-06T04:22:15;3.05;;;2.65;;
32505;SDS011;18955;51.224;8.482;2023-08-06T04:24:42;2.88;;;2.60;;
32505;SDS011;18955;51.224;8.482;2023-08-06T04:27:12;2.90;;;2.58;;
32505;SDS011;18955;51.224;8.482;2023-08-06T04:29:40;5.40;;;2.75;;
32505;SDS011;18955;51.224;8.482;2023-08-06T04:32:08;4.65;;;2.55;;
32505;SDS011;18955;51.224;8.482;2023-08-06T04:34:38;6.30;;;2.53;;
32505;SDS011;18955;51.224;8.482;2023-08-06T04:37:04;2.10;;;1.55;;
32505;SDS011;18955;51.224;8.482;2023-08-06T04:39:31;6.30;;;2.28;;
32505;SDS011;18955;51.224;8.482;2023-08-06T04:41:57;2.95;;;2.53;;
32505;SDS011;18955;51.224;8.482;2023-08-06T04:44:24;2.70;;;2.30;;
32505;SDS011;18955;51.224;8.482;2023-08-06T04:46:50;2.50;;;1.58;;
32505;SDS011;18955;51.224;8.482;2023-08-06T04:49:17;2.95;;;2.35;;
32505;SDS011;18955;51.224;8.482;2023-08-06T04:51:44;9.05;;;2.50;;
32505;SDS011;18955;51.224;8.482;2023-08-06T04:54:10;5.55;;;2.53;;
32505;SDS011;18955;51.224;8.482;2023-08-06T04:56:36;2.80;;;2.13;;
32505;SDS011;18955;51.224;8.482;2023-08-06T04:59:02;17.00;;;2.50;;
32505;SDS011;18955;51.224;8.482;2023-08-06T05:01:28;2.92;;;2.45;;
32505;SDS011;18955;51.224;8.482;2023-08-06T05:03:55;4.47;;;2.63;;
32505;SDS011;18955;51.224;8.482;2023-08-06T05:06:21;3.38;;;2.45;;
32505;SDS011;18955;51.224;8.482;2023-08-06T05:08:47;4.93;;;2.42;;
32505;SDS011;18955;51.224;8.482;2023-08-06T05:11:13;3.45;;;2.55;;
32505;SDS011;18955;51.224;8.482;2023-08-06T05:13:40;5.65;;;2.70;;
32505;SDS011;18955;51.224;8.482;2023-08-06T05:16:06;3.80;;;2.50;;
32505;SDS011;18955;51.224;8.482;2023-08-06T05:18:32;6.82;;;2.50;;
32505;SDS011;18955;51.224;8.482;2023-08-06T05:20:59;4.75;;;2.88;;
32505;SDS011;18955;51.224;8.482;2023-08-06T05:23:26;9.98;;;2.65;;
32505;SDS011;18955;51.224;8.482;2023-08-06T05:25:52;5.05;;;2.30;;
32505;SDS011;18955;51.224;8.482;2023-08-06T05:28:18;5.88;;;2.53;;
32505;SDS011;18955;51.224;8.482;2023-08-06T05:30:44;3.33;;;2.15;;
32505;SDS011;18955;51.224;8.482;2023-08-06T05:33:10;3.30;;;2.50;;
32505;SDS011;18955;51.224;8.482;2023-08-06T05:35:36;3.47;;;2.15;;
32505;SDS011;18955;51.224;8.482;2023-08-06T05:38:03;5.38;;;2.55;;
32505;SDS011;18955;51.224;8.482;2023-08-06T05:40:29;3.45;;;2.33;;
32505;SDS011;18955;51.224;8.482;2023-08-06T05:42:55;7.50;;;2.90;;
32505;SDS011;18955;51.224;8.482;2023-08-06T05:45:21;3.55;;;2.58;;
32505;SDS011;18955;51.224;8.482;2023-08-06T05:47:48;2.60;;;1.98;;
32505;SDS011;18955;51.224;8.482;2023-08-06T05:50:14;6.15;;;2.72;;
32505;SDS011;18955;51.224;8.482;2023-08-06T05:52:40;3.70;;;2.35;;
32505;SDS011;18955;51.224;8.482;2023-08-06T05:55:06;3.83;;;1.65;;
32505;SDS011;18955;51.224;8.482;2023-08-06T05:57:33;2.72;;;2.45;;
32505;SDS011;18955;51.224;8.482;2023-08-06T06:00:00;6.40;;;2.97;;
32505;SDS011;18955;51.224;8.482;2023-08-06T06:02:26;6.45;;;2.60;;
32505;SDS011;18955;51.224;8.482;2023-08-06T06:04:52;7.53;;;2.75;;
32505;SDS011;18955;51.224;8.482;2023-08-06T06:07:19;8.15;;;2.80;;
32505;SDS011;18955;51.224;8.482;2023-08-06T06:09:45;4.90;;;2.50;;
32505;SDS011;18955;51.224;8.482;2023-08-06T06:12:11;4.70;;;2.35;;
32505;SDS011;18955;51.224;8.482;2023-08-06T06:14:37;4.55;;;2.70;;
32505;SDS011;18955;51.224;8.482;2023-08-06T06:17:03;6.57;;;2.03;;
32505;SDS011;18955;51.224;8.482;2023-08-06T06:19:30;5.80;;;2.72;;
32505;SDS011;18955;51.224;8.482;2023-08-06T06:21:56;6.00;;;3.00;;
32505;SDS011;18955;51.224;8.482;2023-08-06T06:24:23;4.40;;;2.65;;
32505;SDS011;18955;51.224;8.482;2023-08-06T06:26:49;6.65;;;3.10;;
32505;SDS011;18955;51.224;8.482;2023-08-06T06:29:15;2.15;;;1.77;;
32505;SDS011;18955;51.224;8.482;2023-08-06T06:31:41;4.03;;;2.92;;
32505;SDS011;18955;51.224;8.482;2023-08-06T06:34:08;4.95;;;3.40;;
32505;SDS011;18955;51.224;8.482;2023-08-06T06:36:34;5.00;;;2.45;;
32505;SDS011;18955;51.224;8.482;2023-08-06T06:39:00;4.93;;;3.00;;
32505;SDS011;18955;51.224;8.482;2023-08-06T06:41:26;4.35;;;2.85;;
32505;SDS011;18955;51.224;8.482;2023-08-06T06:44:01;6.57;;;3.28;;
32505;SDS011;18955;51.224;8.482;2023-08-06T06:46:27;8.52;;;3.35;;
32505;SDS011;18955;51.224;8.482;2023-08-06T06:48:53;10.80;;;3.53;;
32505;SDS011;18955;51.224;8.482;2023-08-06T06:51:19;5.47;;;3.08;;
32505;SDS011;18955;51.224;8.482;2023-08-06T06:53:45;5.57;;;3.15;;
32505;SDS011;18955;51.224;8.482;2023-08-06T06:56:12;4.03;;;2.33;;
32505;SDS011;18955;51.224;8.482;2023-08-06T06:58:38;6.72;;;3.67;;
32505;SDS011;18955;51.224;8.482;2023-08-06T07:01:06;4.25;;;3.10;;
32505;SDS011;18955;51.224;8.482;2023-08-06T07:03:35;5.43;;;2.80;;
32505;SDS011;18955;51.224;8.482;2023-08-06T07:06:02;3.13;;;2.83;;
32505;SDS011;18955;51.224;8.482;2023-08-06T07:08:29;5.03;;;2.45;;
32505;SDS011;18955;51.224;8.482;2023-08-06T07:11:02;3.92;;;2.63;;
32505;SDS011;18955;51.224;8.482;2023-08-06T07:13:29;3.78;;;2.05;;
32505;SDS011;18955;51.224;8.482;2023-08-06T07:15:55;2.67;;;2.42;;
32505;SDS011;18955;51.224;8.482;2023-08-06T07:18:22;3.13;;;2.47;;
32505;SDS011;18955;51.224;8.482;2023-08-06T07:20:52;2.60;;;1.98;;
32505;SDS011;18955;51.224;8.482;2023-08-06T07:23:23;4.38;;;2.20;;
32505;SDS011;18955;51.224;8.482;2023-08-06T07:25:50;2.30;;;1.92;;
32505;SDS011;18955;51.224;8.482;2023-08-06T07:28:16;1.98;;;1.70;;
32505;SDS011;18955;51.224;8.482;2023-08-06T07:30:43;4.10;;;2.00;;
32505;SDS011;18955;51.224;8.482;2023-08-06T07:33:10;2.67;;;2.25;;
32505;SDS011;18955;51.224;8.482;2023-08-06T07:35:37;2.17;;;1.85;;
32505;SDS011;18955;51.224;8.482;2023-08-06T07:38:04;2.53;;;1.92;;
32505;SDS011;18955;51.224;8.482;2023-08-06T07:40:30;2.42;;;1.85;;
32505;SDS011;18955;51.224;8.482;2023-08-06T07:42:57;2.17;;;1.90;;
32505;SDS011;18955;51.224;8.482;2023-08-06T07:45:23;1.95;;;1.38;;
32505;SDS011;18955;51.224;8.482;2023-08-06T07:50:16;2.30;;;1.85;;
32505;SDS011;18955;51.224;8.482;2023-08-06T07:52:42;4.82;;;2.13;;
32505;SDS011;18955;51.224;8.482;2023-08-06T07:55:09;2.90;;;1.65;;
32505;SDS011;18955;51.224;8.482;2023-08-06T07:57:35;8.40;;;2.25;;
32505;SDS011;18955;51.224;8.482;2023-08-06T08:00:01;4.53;;;1.75;;
32505;SDS011;18955;51.224;8.482;2023-08-06T08:02:38;5.28;;;2.08;;
32505;SDS011;18955;51.224;8.482;2023-08-06T08:05:04;2.25;;;1.30;;
32505;SDS011;18955;51.224;8.482;2023-08-06T08:07:32;4.20;;;1.80;;
32505;SDS011;18955;51.224;8.482;2023-08-06T08:09:59;4.40;;;2.03;;
32505;SDS011;18955;51.224;8.482;2023-08-06T08:12:25;1.67;;;1.30;;
32505;SDS011;18955;51.224;8.482;2023-08-06T08:14:51;5.90;;;2.00;;
32505;SDS011;18955;51.224;8.482;2023-08-06T08:17:17;4.78;;;1.75;;
32505;SDS011;18955;51.224;8.482;2023-08-06T08:19:44;2.17;;;1.70;;
32505;SDS011;18955;51.224;8.482;2023-08-06T08:22:10;7.93;;;3.05;;
32505;SDS011;18955;51.224;8.482;2023-08-06T08:24:37;4.63;;;1.67;;
32505;SDS011;18955;51.224;8.482;2023-08-06T08:27:03;3.63;;;1.90;;
32505;SDS011;18955;51.224;8.482;2023-08-06T08:29:29;3.60;;;1.88;;
32505;SDS011;18955;51.224;8.482;2023-08-06T08:31:55;4.70;;;1.83;;
32505;SDS011;18955;51.224;8.482;2023-08-06T08:34:22;6.13;;;1.60;;
32505;SDS011;18955;51.224;8.482;2023-08-06T08:36:48;3.15;;;1.77;;
32505;SDS011;18955;51.224;8.482;2023-08-06T08:39:15;4.07;;;1.60;;
32505;SDS011;18955;51.224;8.482;2023-08-06T08:41:41;3.90;;;1.90;;
32505;SDS011;18955;51.224;8.482;2023-08-06T08:44:08;4.13;;;2.13;;
32505;SDS011;18955;51.224;8.482;2023-08-06T08:46:39;5.30;;;1.73;;
32505;SDS011;18955;51.224;8.482;2023-08-06T08:49:06;2.60;;;1.58;;
32505;SDS011;18955;51.224;8.482;2023-08-06T08:51:33;2.65;;;1.40;;
32505;SDS011;18955;51.224;8.482;2023-08-06T08:54:03;3.15;;;1.63;;
32505;SDS011;18955;51.224;8.482;2023-08-06T08:56:30;5.88;;;1.65;;
32505;SDS011;18955;51.224;8.482;2023-08-06T08:58:57;8.52;;;1.58;;
32505;SDS011;18955;51.224;8.482;2023-08-06T09:01:23;3.08;;;1.55;;
32505;SDS011;18955;51.224;8.482;2023-08-06T09:03:51;3.50;;;1.52;;
32505;SDS011;18955;51.224;8.482;2023-08-06T09:06:19;4.47;;;1.60;;
32505;SDS011;18955;51.224;8.482;2023-08-06T09:08:48;4.65;;;1.55;;
32505;SDS011;18955;51.224;8.482;2023-08-06T09:11:20;6.90;;;1.60;;
32505;SDS011;18955;51.224;8.482;2023-08-06T09:13:47;2.65;;;1.55;;
32505;SDS011;18955;51.224;8.482;2023-08-06T09:16:13;5.25;;;1.60;;
32505;SDS011;18955;51.224;8.482;2023-08-06T09:18:39;2.90;;;1.48;;
32505;SDS011;18955;51.224;8.482;2023-08-06T09:21:06;4.85;;;1.50;;
32505;SDS011;18955;51.224;8.482;2023-08-06T09:23:40;3.42;;;1.02;;
32505;SDS011;18955;51.224;8.482;2023-08-06T09:26:06;2.67;;;1.10;;
32505;SDS011;18955;51.224;8.482;2023-08-06T09:28:37;6.32;;;1.23;;
32505;SDS011;18955;51.224;8.482;2023-08-06T09:31:08;2.85;;;1.30;;
32505;SDS011;18955;51.224;8.482;2023-08-06T09:33:36;3.03;;;1.10;;
32505;SDS011;18955;51.224;8.482;2023-08-06T09:36:10;1.35;;;1.20;;
32505;SDS011;18955;51.224;8.482;2023-08-06T09:38:40;3.55;;;1.30;;
32505;SDS011;18955;51.224;8.482;2023-08-06T09:41:07;2.15;;;1.23;;
32505;SDS011;18955;51.224;8.482;2023-08-06T09:43:39;1.08;;;1.00;;
32505;SDS011;18955;51.224;8.482;2023-08-06T09:46:12;1.90;;;1.02;;
32505;SDS011;18955;51.224;8.482;2023-08-06T09:48:39;3.03;;;0.93;;
32505;SDS011;18955;51.224;8.482;2023-08-06T09:51:07;3.90;;;1.45;;
32505;SDS011;18955;51.224;8.482;2023-08-06T09:53:35;4.57;;;0.90;;
32505;SDS011;18955;51.224;8.482;2023-08-06T09:56:03;3.63;;;0.90;;
32505;SDS011;18955;51.224;8.482;2023-08-06T09:58:30;4.68;;;0.75;;
32505;SDS011;18955;51.224;8.482;2023-08-06T10:00:58;3.85;;;0.88;;
32505;SDS011;18955;51.224;8.482;2023-08-06T10:03:25;0.50;;;0.50;;
32505;SDS011;18955;51.224;8.482;2023-08-06T10:05:54;1.73;;;0.60;;
32505;SDS011;18955;51.224;8.482;2023-08-06T10:08:22;1.50;;;0.73;;
32505;SDS011;18955;51.224;8.482;2023-08-06T10:10:49;1.60;;;0.68;;
32505;SDS011;18955;51.224;8.482;2023-08-06T10:13:15;2.15;;;0.80;;
32505;SDS011;18955;51.224;8.482;2023-08-06T10:15:46;3.22;;;0.70;;
32505;SDS011;18955;51.224;8.482;2023-08-06T10:18:12;2.28;;;0.70;;
32505;SDS011;18955;51.224;8.482;2023-08-06T10:20:43;0.85;;;0.85;;
32505;SDS011;18955;51.224;8.482;2023-08-06T10:23:09;4.38;;;0.90;;
32505;SDS011;18955;51.224;8.482;2023-08-06T10:25:40;0.45;;;0.32;;
32505;SDS011;18955;51.224;8.482;2023-08-06T10:28:10;0.47;;;0.47;;
32505;SDS011;18955;51.224;8.482;2023-08-06T10:30:41;5.63;;;1.00;;
32505;SDS011;18955;51.224;8.482;2023-08-06T10:33:09;1.40;;;0.80;;
32505;SDS011;18955;51.224;8.482;2023-08-06T10:35:36;3.60;;;0.63;;
32505;SDS011;18955;51.224;8.482;2023-08-06T10:38:12;3.63;;;0.80;;
32505;SDS011;18955;51.224;8.482;2023-08-06T10:40:52;1.00;;;0.73;;
32505;SDS011;18955;51.224;8.482;2023-08-06T10:46:01;1.95;;;0.77;;
32505;SDS011;18955;51.224;8.482;2023-08-06T10:48:36;0.82;;;0.75;;
32505;SDS011;18955;51.224;8.482;2023-08-06T10:53:34;2.13;;;0.90;;
32505;SDS011;18955;51.224;8.482;2023-08-06T10:56:01;0.98;;;0.80;;
32505;SDS011;18955;51.224;8.482;2023-08-06T10:58:31;1.15;;;0.70;;
32505;SDS011;18955;51.224;8.482;2023-08-06T11:00:58;1.65;;;0.90;;
32505;SDS011;18955;51.224;8.482;2023-08-06T11:03:26;2.50;;;0.90;;
32505;SDS011;18955;51.224;8.482;2023-08-06T11:05:53;2.05;;;0.60;;
32505;SDS011;18955;51.224;8.482;2023-08-06T11:08:25;3.83;;;0.70;;
32505;SDS011;18955;51.224;8.482;2023-08-06T11:11:10;1.80;;;0.70;;
32505;SDS011;18955;51.224;8.482;2023-08-06T11:13:39;0.73;;;0.50;;
32505;SDS011;18955;51.224;8.482;2023-08-06T11:16:05;2.67;;;0.82;;
32505;SDS011;18955;51.224;8.482;2023-08-06T11:18:32;0.95;;;0.70;;
32505;SDS011;18955;51.224;8.482;2023-08-06T11:23:26;1.45;;;0.75;;
32505;SDS011;18955;51.224;8.482;2023-08-06T11:25:57;1.63;;;0.80;;
32505;SDS011;18955;51.224;8.482;2023-08-06T11:28:23;2.13;;;1.00;;
32505;SDS011;18955;51.224;8.482;2023-08-06T11:30:50;1.95;;;0.93;;
32505;SDS011;18955;51.224;8.482;2023-08-06T11:33:23;4.20;;;1.63;;
32505;SDS011;18955;51.224;8.482;2023-08-06T11:35:56;15.63;;;2.17;;
32505;SDS011;18955;51.224;8.482;2023-08-06T11:38:24;6.47;;;2.42;;
32505;SDS011;18955;51.224;8.482;2023-08-06T11:40:52;9.57;;;1.73;;
32505;SDS011;18955;51.224;8.482;2023-08-06T11:43:19;8.13;;;1.50;;
32505;SDS011;18955;51.224;8.482;2023-08-06T11:45:50;1.75;;;1.20;;
32505;SDS011;18955;51.224;8.482;2023-08-06T11:48:19;6.18;;;1.42;;
32505;SDS011;18955;51.224;8.482;2023-08-06T11:50:45;2.13;;;1.42;;
32505;SDS011;18955;51.224;8.482;2023-08-06T11:53:12;3.63;;;1.23;;
32505;SDS011;18955;51.224;8.482;2023-08-06T11:55:40;6.38;;;1.50;;
32505;SDS011;18955;51.224;8.482;2023-08-06T12:00:32;2.10;;;1.10;;
32505;SDS011;18955;51.224;8.482;2023-08-06T12:02:59;8.65;;;1.48;;
32505;SDS011;18955;51.224;8.482;2023-08-06T12:05:29;5.68;;;1.00;;
32505;SDS011;18955;51.224;8.482;2023-08-06T12:07:57;3.58;;;1.30;;
32505;SDS011;18955;51.224;8.482;2023-08-06T12:10:25;2.40;;;1.20;;
32505;SDS011;18955;51.224;8.482;2023-08-06T12:12:53;1.95;;;1.30;;
32505;SDS011;18955;51.224;8.482;2023-08-06T12:15:20;2.75;;;1.10;;
32505;SDS011;18955;51.224;8.482;2023-08-06T12:17:48;2.75;;;0.90;;
32505;SDS011;18955;51.224;8.482;2023-08-06T12:20:14;1.60;;;0.85;;
32505;SDS011;18955;51.224;8.482;2023-08-06T12:22:41;2.75;;;1.13;;
32505;SDS011;18955;51.224;8.482;2023-08-06T12:25:08;3.17;;;1.05;;
32505;SDS011;18955;51.224;8.482;2023-08-06T12:27:41;1.65;;;0.93;;
32505;SDS011;18955;51.224;8.482;2023-08-06T12:30:08;0.88;;;0.80;;
32505;SDS011;18955;51.224;8.482;2023-08-06T12:32:35;1.38;;;0.88;;
32505;SDS011;18955;51.224;8.482;2023-08-06T12:35:02;1.73;;;0.90;;
32505;SDS011;18955;51.224;8.482;2023-08-06T12:37:28;1.55;;;1.00;;
32505;SDS011;18955;51.224;8.482;2023-08-06T12:39:55;0.80;;;0.80;;
32505;SDS011;18955;51.224;8.482;2023-08-06T12:42:21;1.35;;;1.00;;
32505;SDS011;18955;51.224;8.482;2023-08-06T12:44:51;0.85;;;0.85;;
32505;SDS011;18955;51.224;8.482;2023-08-06T12:47:17;1.50;;;0.82;;
32505;SDS011;18955;51.224;8.482;2023-08-06T12:49:44;2.10;;;0.80;;
32505;SDS011;18955;51.224;8.482;2023-08-06T12:52:10;0.68;;;0.65;;
32505;SDS011;18955;51.224;8.482;2023-08-06T12:54:38;0.60;;;0.60;;
32505;SDS011;18955;51.224;8.482;2023-08-06T12:57:04;0.60;;;0.60;;
32505;SDS011;18955;51.224;8.482;2023-08-06T12:59:31;0.93;;;0.82;;
32505;SDS011;18955;51.224;8.482;2023-08-06T13:01:59;1.52;;;1.42;;
32505;SDS011;18955;51.224;8.482;2023-08-06T13:06:51;2.97;;;1.10;;
32505;SDS011;18955;51.224;8.482;2023-08-06T13:09:17;0.70;;;0.70;;
32505;SDS011;18955;51.224;8.482;2023-08-06T13:14:12;2.33;;;1.00;;
32505;SDS011;18955;51.224;8.482;2023-08-06T13:16:40;1.75;;;0.70;;
32505;SDS011;18955;51.224;8.482;2023-08-06T13:19:08;1.70;;;0.70;;
32505;SDS011;18955;51.224;8.482;2023-08-06T13:21:35;1.42;;;0.65;;
32505;SDS011;18955;51.224;8.482;2023-08-06T13:24:23;5.97;;;0.70;;
32505;SDS011;18955;51.224;8.482;2023-08-06T13:26:49;1.30;;;0.80;;
32505;SDS011;18955;51.224;8.482;2023-08-06T13:29:16;5.45;;;0.82;;
32505;SDS011;18955;51.224;8.482;2023-08-06T13:31:42;5.07;;;1.02;;
32505;SDS011;18955;51.224;8.482;2023-08-06T13:34:08;1.08;;;0.63;;
32505;SDS011;18955;51.224;8.482;2023-08-06T13:36:34;0.98;;;0.60;;
32505;SDS011;18955;51.224;8.482;2023-08-06T13:39:00;1.10;;;0.57;;
32505;SDS011;18955;51.224;8.482;2023-08-06T13:41:27;1.25;;;0.52;;
32505;SDS011;18955;51.224;8.482;2023-08-06T13:43:53;3.65;;;0.75;;
32505;SDS011;18955;51.224;8.482;2023-08-06T13:46:19;0.85;;;0.45;;
32505;SDS011;18955;51.224;8.482;2023-08-06T13:48:46;1.75;;;0.75;;
32505;SDS011;18955;51.224;8.482;2023-08-06T13:51:16;1.73;;;0.52;;
32505;SDS011;18955;51.224;8.482;2023-08-06T13:53:42;2.72;;;0.60;;
32505;SDS011;18955;51.224;8.482;2023-08-06T13:56:09;1.35;;;0.60;;
32505;SDS011;18955;51.224;8.482;2023-08-06T13:58:37;3.15;;;0.60;;
32505;SDS011;18955;51.224;8.482;2023-08-06T14:01:03;0.73;;;0.60;;
32505;SDS011;18955;51.224;8.482;2023-08-06T14:03:30;3.40;;;0.60;;
32505;SDS011;18955;51.224;8.482;2023-08-06T14:05:56;1.08;;;0.63;;
32505;SDS011;18955;51.224;8.482;2023-08-06T14:08:23;0.60;;;0.40;;
32505;SDS011;18955;51.224;8.482;2023-08-06T14:10:50;0.73;;;0.52;;
32505;SDS011;18955;51.224;8.482;2023-08-06T14:13:17;2.10;;;0.70;;
32505;SDS011;18955;51.224;8.482;2023-08-06T14:15:44;1.90;;;0.70;;
32505;SDS011;18955;51.224;8.482;2023-08-06T14:18:13;0.75;;;0.50;;
32505;SDS011;18955;51.224;8.482;2023-08-06T14:20:40;2.80;;;0.80;;
32505;SDS011;18955;51.224;8.482;2023-08-06T14:23:09;1.05;;;0.52;;
32505;SDS011;18955;51.224;8.482;2023-08-06T14:25:37;2.60;;;0.63;;
32505;SDS011;18955;51.224;8.482;2023-08-06T14:28:04;0.55;;;0.40;;
32505;SDS011;18955;51.224;8.482;2023-08-06T14:30:32;1.90;;;0.47;;
32505;SDS011;18955;51.224;8.482;2023-08-06T14:32:59;0.63;;;0.63;;
32505;SDS011;18955;51.224;8.482;2023-08-06T14:35:26;5.90;;;0.88;;
32505;SDS011;18955;51.224;8.482;2023-08-06T14:40:19;2.00;;;0.80;;
32505;SDS011;18955;51.224;8.482;2023-08-06T14:42:45;1.90;;;0.50;;
32505;SDS011;18955;51.224;8.482;2023-08-06T14:45:11;0.65;;;0.65;;
32505;SDS011;18955;51.224;8.482;2023-08-06T14:47:37;1.40;;;0.90;;
32505;SDS011;18955;51.224;8.482;2023-08-06T14:50:03;5.13;;;0.90;;
32505;SDS011;18955;51.224;8.482;2023-08-06T14:52:30;1.75;;;0.60;;
32505;SDS011;18955;51.224;8.482;2023-08-06T14:54:57;2.55;;;1.00;;
32505;SDS011;18955;51.224;8.482;2023-08-06T14:57:23;6.82;;;0.82;;
32505;SDS011;18955;51.224;8.482;2023-08-06T14:59:53;1.42;;;0.80;;
32505;SDS011;18955;51.224;8.482;2023-08-06T15:04:46;1.67;;;0.60;;
32505;SDS011;18955;51.224;8.482;2023-08-06T15:07:12;2.60;;;0.70;;
32505;SDS011;18955;51.224;8.482;2023-08-06T15:09:39;1.02;;;0.60;;
32505;SDS011;18955;51.224;8.482;2023-08-06T15:12:05;3.60;;;1.23;;
32505;SDS011;18955;51.224;8.482;2023-08-06T15:14:32;3.45;;;0.50;;
32505;SDS011;18955;51.224;8.482;2023-08-06T15:16:58;2.78;;;0.60;;
32505;SDS011;18955;51.224;8.482;2023-08-06T15:19:24;2.83;;;0.50;;